Home > Products > Valid Products > TAF

000
FTUS42 KTAE 012300
TAFABY
TAF
KABY 012337Z 0200/0224 02005KT P6SM SCT080 BKN250
     FM020900 06003KT 5SM BR OVC007
     FM021500 06006KT P6SM SCT015 BKN250
     FM021800 03007KT P6SM VCTS BKN050CB=



000
FTUS42 KTAE 012300
TAFVLD
TAF
KVLD 012337Z 0200/0224 VRB03KT 5SM -RA SCT035 BKN060
      TEMPO 0200/0202 2SM RA BKN035 OVC060
     FM020200 00000KT P6SM SCT060 BKN250
     FM020900 00000KT 4SM BR OVC004
     FM021500 VRB05KT P6SM SCT015 BKN250
     FM021800 07006KT P6SM VCTS BKN050CB=



000
FTUS42 KTAE 012300
TAFTLH
TAF
KTLH 012337Z 0200/0224 16006KT P6SM SCT060 BKN250
     FM020300 VRB04KT P6SM BKN250=



000
FTUS42 KTAE 012300
TAFDHN
TAF
KDHN 012337Z 0200/0224 04005KT P6SM BKN250
     FM021800 02007KT P6SM VCTS BKN050CB=



000
FTUS42 KTAE 012300 AAA
TAFVLD
TAF AMD
KVLD 012309Z 0123/0218 VRB03KT P6SM VCSH SCT035 BKN060
      TEMPO 0123/0201 VRB15G20KT 3/4SM +RA BKN035 OVC060
     FM020200 00000KT P6SM BKN250=



000
FTUS42 KTAE 011700
TAFVLD
TAF
KVLD 011720Z 0118/0218 VRB03KT P6SM VCSH SCT050 SCT250
     FM020200 00000KT P6SM BKN250=



000
FTUS42 KTAE 011700
TAFTLH
TAF
KTLH 011720Z 0118/0218 VRB04KT P6SM SCT050 BKN250=



000
FTUS42 KTAE 011700
TAFDHN
TAF
KDHN 011720Z 0118/0218 VRB04KT P6SM SCT050 BKN250=



000
FTUS42 KTAE 011700
TAFABY
TAF
KABY 011720Z 0118/0218 05005KT P6SM VCSH SCT020
     FM012000 05005KT P6SM -SHRA SCT030 SCT250
     FM020000 00000KT P6SM BKN250=



000
FTUS42 KTAE 011500 AAA
TAFABY
TAF AMD
KABY 011503Z 0115/0212 04005KT P6SM BKN012
     FM011700 VRB05KT P6SM VCSH SCT030 BKN250
     FM020000 00000KT P6SM BKN250=



000
FTUS42 KTAE 011100 CCA
TAFDHN
TAF COR
KDHN 011159Z 0112/0212 VRB05KT P6SM SCT050 BKN250
      TEMPO 0112/0113 3SM BR SCT006=



000
FTUS42 KTAE 011100
TAFVLD
TAF
KVLD 011127Z 0112/0212 VRB05KT P6SM SCT050 BKN250=



000
FTUS42 KTAE 011100
TAFDHN
TAF
KDHN 011127Z 0112/0212 VRB05KT P6SM SCT050 BKN250=



000
FTUS42 KTAE 011100
TAFTLH
TAF
KTLH 011127Z 0112/0212 VRB05KT P6SM SCT050 BKN250=



000
FTUS42 KTAE 011100
TAFABY
TAF
KABY 011127Z 0112/0212 04005KT P6SM BKN012
      TEMPO 0112/0114 5SM BR BKN006
     FM011500 VRB05KT P6SM SCT030 BKN250=



000
FTUS42 KTAE 010900 AAA
TAFABY
TAF AMD
KABY 010910Z 0109/0206 01004KT P6SM SCT008 BKN250
      TEMPO 0109/0112 BKN008 OVC250
     FM012000 VRB05KT P6SM VCTS SCT050CB SCT250
     FM020100 VRB03KT P6SM SCT250=



000
FTUS42 KTAE 010500
TAFVLD
TAF
KVLD 010523Z 0106/0206 VRB04KT P6SM FEW250
     FM012000 VRB05KT P6SM VCTS SCT050CB SCT250
     FM020200 VRB01KT P6SM SCT250=



000
FTUS42 KTAE 010500
TAFDHN
TAF
KDHN 010523Z 0106/0206 00000KT P6SM SCT250
     FM011600 VRB05KT P6SM SCT060 SCT250=



000
FTUS42 KTAE 010500
TAFTLH
TAF
KTLH 010523Z 0106/0206 VRB03KT P6SM SCT250
     FM012200 20007KT P6SM SCT060 SCT250
     FM020200 VRB03KT P6SM SCT250=



000
FTUS42 KTAE 010500
TAFABY
TAF
KABY 010523Z 0106/0206 05005KT P6SM SCT250
     FM012000 VRB05KT P6SM VCTS SCT050CB SCT250
     FM020100 VRB03KT P6SM SCT250=



000
FTUS42 KTAE 312300
TAFVLD
TAF
KVLD 312339Z 0100/0124 26004KT P6SM SCT250
     FM012000 36005KT P6SM VCTS SCT060CB SCT250=



000
FTUS42 KTAE 312300
TAFTLH
TAF
KTLH 312339Z 0100/0124 VRB04KT P6SM SCT250
     FM011800 29005KT P6SM SCT060 SCT250=



000
FTUS42 KTAE 312300
TAFDHN
TAF
KDHN 312339Z 0100/0124 VRB04KT P6SM SCT250
     FM012100 33006KT P6SM SCT060 SCT250=



000
FTUS42 KTAE 312300
TAFABY
TAF
KABY 312339Z 0100/0124 VRB04KT P6SM SCT250
     FM012000 36005KT P6SM VCTS SCT060CB SCT250=



000
FTUS42 KTAE 311700
TAFVLD
TAF
KVLD 311720Z 3118/0118 VRB03KT P6SM SCT060 SCT250
     FM312000 VRB04KT P6SM VCSH SCT060 SCT250
     FM010100 00000KT P6SM BKN250=



000
FTUS42 KTAE 311700
TAFTLH
TAF
KTLH 311720Z 3118/0118 VRB04KT P6SM SCT050 SCT250=



000
FTUS42 KTAE 311700
TAFDHN
TAF
KDHN 311720Z 3118/0118 VRB04KT P6SM FEW050 SCT250=



000
FTUS42 KTAE 311700
TAFABY
TAF
KABY 311720Z 3118/0118 26006KT P6SM SCT060 SCT250
     FM312000 VRB04KT P6SM VCSH SCT060 SCT250
     FM010100 00000KT P6SM BKN250=



000
FTUS42 KTAE 311100
TAFDHN
TAF
KDHN 311120Z 3112/0112 33003KT P6SM BKN250
     FM311800 35004KT P6SM SCT050 SCT250
     FM010300 36003KT P6SM BKN250
     FM011000 02003KT P6SM BKN100 BKN250=



000
FTUS42 KTAE 311100
TAFABY
TAF
KABY 311120Z 3112/0112 00000KT P6SM SCT250
     FM311800 28005KT P6SM SCT050 BKN250
     FM010300 04003KT P6SM BKN250
     FM011000 00000KT P6SM BKN100 BKN250=



000
FTUS42 KTAE 311100
TAFVLD
TAF
KVLD 311120Z 3112/0112 00000KT P6SM SCT250
      TEMPO 3112/3113 4SM BR
     FM311800 15005KT P6SM SCT050 SCT250
     FM010100 00000KT P6SM BKN250
     FM011000 00000KT P6SM SCT100 BKN250=



000
FTUS42 KTAE 311100
TAFTLH
TAF
KTLH 311120Z 3112/0112 00000KT P6SM SCT250
     FM311800 25004KT P6SM SCT050 BKN250
     FM010300 00000KT P6SM BKN250
     FM011000 00000KT P6SM SCT100 BKN250=



000
FTUS42 KTAE 310500
TAFVLD
TAF
KVLD 310536Z 3106/0106 00000KT P6SM BKN250
     FM311800 15005KT P6SM SCT050 SCT250
     FM010100 00000KT P6SM BKN250=



000
FTUS42 KTAE 310500
TAFABY
TAF
KABY 310536Z 3106/0106 00000KT P6SM BKN250
     FM311800 28005KT P6SM SCT050 BKN250
     FM010300 04003KT P6SM BKN250=



000
FTUS42 KTAE 310500
TAFTLH
TAF
KTLH 310536Z 3106/0106 00000KT P6SM SCT250
     FM311800 25004KT P6SM SCT050 BKN250
     FM010300 00000KT P6SM BKN250
      AMD NOT SKED=



000
FTUS42 KTAE 310500
TAFDHN
TAF
KDHN 310536Z 3106/0106 00000KT P6SM BKN250
     FM311800 35004KT P6SM SCT050 SCT250
     FM010300 36003KT P6SM BKN250=



000
FTUS42 KTAE 310000 CCA
TAFTLH
TAF COR
KTLH 310036Z 3100/3124 VRB04KT P6SM SCT050
     FM311800 22007KT P6SM BKN050 BKN250
      AMD NOT SKED AFT 310300=



000
FTUS42 KTAE 302300
TAFABY
TAF
KABY 302337Z 3100/3124 VRB04KT P6SM SCT050
     FM311800 35006KT P6SM BKN050 BKN250=



000
FTUS42 KTAE 302300
TAFTLH
TAF
KTLH 302337Z 3100/3124 VRB04KT P6SM SCT050
     FM311800 22007KT P6SM BKN050 BKN250=



000
FTUS42 KTAE 302300
TAFDHN
TAF
KDHN 302337Z 3100/3124 VRB04KT P6SM SCT050
     FM311800 35006KT P6SM SCT050 SCT250=



000
FTUS42 KTAE 302300
TAFVLD
TAF
KVLD 302337Z 3100/3124 VRB04KT P6SM SCT050
     FM312100 15006KT P6SM BKN050 BKN250=



000
FTUS42 KTAE 301700
TAFTLH
TAF
KTLH 301720Z 3018/3118 VRB04KT P6SM SCT050=



000
FTUS42 KTAE 301700
TAFVLD
TAF
KVLD 301720Z 3018/3118 VRB04KT P6SM SCT050=



000
FTUS42 KTAE 301700
TAFDHN
TAF
KDHN 301720Z 3018/3118 VRB04KT P6SM SCT050=



000
FTUS42 KTAE 301700
TAFABY
TAF
KABY 301720Z 3018/3118 VRB04KT P6SM SCT050=



000
FTUS42 KTAE 301200 RRA
TAFVLD
TAF
KVLD 301226Z 3012/3112 VRB04KT P6SM FEW060 SCT250=



000
FTUS42 KTAE 301200 RRA
TAFDHN
TAF
KDHN 301226Z 3012/3112 33006KT P6SM FEW060 SCT250=



000
FTUS42 KTAE 301200 RRA
TAFABY
TAF
KABY 301226Z 3012/3112 34004KT P6SM FEW060 SCT250=



000
FTUS42 KTAE 301200 RRA
TAFTLH
TAF
KTLH 301226Z 3012/3112 33004KT P6SM FEW060 SCT250=



000
FTUS42 KTAE 301200 AAA
TAFVLD
TAF AMD
KVLD 301224Z 3012/3112 VRB04KT P6SM FEW060 SCT250=



000
FTUS42 KTAE 301200 AAA
TAFABY
TAF AMD
KABY 301224Z 3012/3112 34004KT P6SM FEW060 SCT250=



000
FTUS42 KTAE 301200 AAA
TAFDHN
TAF AMD
KDHN 301224Z 3012/3112 33006KT P6SM FEW060 SCT250=



000
FTUS42 KTAE 301200 AAA
TAFTLH
TAF AMD
KTLH 301223Z 3012/3112 33004KT P6SM FEW060 SCT250=



000
FTUS42 KTAE 300500 AAA
TAFTLH
TAF AMD
KTLH 300529Z 3005/3106 33004KT P6SM FEW060 SCT250
      AMD NOT SKED 3006/3011=



000
FTUS42 KTAE 300500
TAFTLH
TAF
KTLH 300520Z 3006/3106 33004KT P6SM FEW060 SCT250=



000
FTUS42 KTAE 300500
TAFABY
TAF
KABY 300520Z 3006/3106 34004KT P6SM FEW060 SCT250=



000
FTUS42 KTAE 300500
TAFDHN
TAF
KDHN 300520Z 3006/3106 33006KT P6SM FEW060 SCT250=



000
FTUS42 KTAE 300500
TAFVLD
TAF
KVLD 300520Z 3006/3106 VRB04KT P6SM FEW060 SCT250=



    US Dept of Commerce
    National Oceanic and Atmospheric Administration
    National Weather Service
    1325 East West Highway
    Silver Spring, MD 20910
    Page Author: NWS Internet Services Team
Disclaimer
Information Quality
Credits
Glossary
Privacy Policy
Freedom of Information Act (FOIA)
About Us
Career Opportunities